createdAt,value
2023-05-29T00:00:14.456Z,5.78
2023-05-29T00:02:45.545Z,5.50
2023-05-29T00:05:13.860Z,5.57
2023-05-29T00:07:42.525Z,5.35
2023-05-29T00:10:11.236Z,4.70
2023-05-29T00:12:39.482Z,4.90
2023-05-29T00:15:07.724Z,5.50
2023-05-29T00:17:35.022Z,5.00
2023-05-29T00:20:06.938Z,5.00
2023-05-29T00:22:34.487Z,5.05
2023-05-29T00:25:01.821Z,4.80
2023-05-29T00:27:28.994Z,5.68
2023-05-29T00:29:56.638Z,5.65
2023-05-29T00:32:24.675Z,4.72
2023-05-29T00:34:52.678Z,4.72
2023-05-29T00:37:22.885Z,3.92
2023-05-29T00:39:50.353Z,4.43
2023-05-29T00:42:17.778Z,3.78
2023-05-29T00:44:45.505Z,4.15
2023-05-29T00:47:13.114Z,4.18
2023-05-29T00:49:40.594Z,4.30
2023-05-29T00:52:09.096Z,4.72
2023-05-29T00:54:36.438Z,4.00
2023-05-29T00:57:05.515Z,4.68
2023-05-29T00:59:34.334Z,4.15
2023-05-29T01:02:03.739Z,4.10
2023-05-29T01:04:34.711Z,4.10
2023-05-29T01:07:03.534Z,4.05
2023-05-29T01:09:31.686Z,3.80
2023-05-29T01:12:09.032Z,3.97
2023-05-29T01:14:55.385Z,3.08
2023-05-29T01:17:27.081Z,3.22
2023-05-29T01:20:08.072Z,3.87
2023-05-29T01:23:08.654Z,3.50
2023-05-29T01:26:21.328Z,4.03
2023-05-29T01:28:49.775Z,4.22
2023-05-29T01:31:21.096Z,3.90
2023-05-29T01:33:59.676Z,4.15
2023-05-29T01:36:27.782Z,3.50
2023-05-29T01:38:56.766Z,3.53
2023-05-29T01:41:25.160Z,3.55
2023-05-29T01:43:54.093Z,3.90
2023-05-29T01:46:22.065Z,3.60
2023-05-29T01:48:49.996Z,3.60
2023-05-29T01:51:17.621Z,3.67
2023-05-29T01:53:45.384Z,3.83
2023-05-29T01:56:12.804Z,3.65
2023-05-29T01:58:41.517Z,3.78
2023-05-29T02:01:09.054Z,3.50
2023-05-29T02:03:36.837Z,4.03
2023-05-29T02:06:04.153Z,4.10
2023-05-29T02:08:31.656Z,3.95
2023-05-29T02:10:59.163Z,3.87
2023-05-29T02:13:26.633Z,3.50
2023-05-29T02:15:53.899Z,3.53
2023-05-29T02:18:21.405Z,4.30
2023-05-29T02:20:48.835Z,3.83
2023-05-29T02:23:21.035Z,3.97
2023-05-29T02:25:48.242Z,3.83
2023-05-29T02:28:15.672Z,3.85
2023-05-29T02:30:43.227Z,3.67
2023-05-29T02:33:10.509Z,3.78
2023-05-29T02:35:37.992Z,4.82
2023-05-29T02:38:05.402Z,3.33
2023-05-29T02:40:32.551Z,3.65
2023-05-29T02:42:59.734Z,4.12
2023-05-29T02:45:27.180Z,4.05
2023-05-29T02:47:54.747Z,4.05
2023-05-29T02:50:21.988Z,4.20
2023-05-29T02:52:49.520Z,3.47
2023-05-29T02:55:16.839Z,4.32
2023-05-29T02:57:44.059Z,3.47
2023-05-29T03:00:12.433Z,4.15
2023-05-29T03:02:40.026Z,4.18
2023-05-29T03:05:07.868Z,3.62
2023-05-29T03:07:35.490Z,4.25
2023-05-29T03:10:02.718Z,3.72
2023-05-29T03:12:30.556Z,3.80
2023-05-29T03:14:58.357Z,3.67
2023-05-29T03:17:26.795Z,4.37
2023-05-29T03:19:54.322Z,3.78
2023-05-29T03:22:21.855Z,3.83
2023-05-29T03:24:49.033Z,3.70
2023-05-29T03:27:16.277Z,4.25
2023-05-29T03:29:44.070Z,4.57
2023-05-29T03:32:12.446Z,4.35
2023-05-29T03:34:41.106Z,4.00
2023-05-29T03:37:08.823Z,4.05
2023-05-29T03:39:36.673Z,4.07
2023-05-29T03:42:04.437Z,4.75
2023-05-29T03:44:32.219Z,3.95
2023-05-29T03:46:59.423Z,4.45
2023-05-29T03:49:26.567Z,4.03
2023-05-29T03:51:54.304Z,4.10
2023-05-29T03:54:21.667Z,3.70
2023-05-29T03:56:48.973Z,4.03
2023-05-29T03:59:17.513Z,4.18
2023-05-29T04:01:47.528Z,4.30
2023-05-29T04:04:15.291Z,4.37
2023-05-29T04:06:42.814Z,4.72
2023-05-29T04:09:10.068Z,4.22
2023-05-29T04:11:37.641Z,4.50
2023-05-29T04:14:04.772Z,4.30
2023-05-29T04:16:32.034Z,4.37
2023-05-29T04:19:00.867Z,4.82
2023-05-29T04:21:28.218Z,4.10
2023-05-29T04:23:55.412Z,3.75
2023-05-29T04:26:26.984Z,4.40
2023-05-29T04:28:58.580Z,4.68
2023-05-29T04:31:27.185Z,4.62
2023-05-29T04:33:58.619Z,4.37
2023-05-29T04:36:27.072Z,4.35
2023-05-29T04:38:56.186Z,4.28
2023-05-29T04:41:24.562Z,4.45
2023-05-29T04:43:52.735Z,4.40
2023-05-29T04:46:20.442Z,4.10
2023-05-29T04:48:48.976Z,4.60
2023-05-29T04:51:17.789Z,5.05
2023-05-29T04:53:45.091Z,4.40
2023-05-29T04:56:12.420Z,4.85
2023-05-29T04:58:39.974Z,4.53
2023-05-29T05:01:09.149Z,4.25
2023-05-29T05:03:38.496Z,4.03
2023-05-29T05:06:08.715Z,5.05
2023-05-29T05:08:36.896Z,4.00
2023-05-29T05:11:07.371Z,4.97
2023-05-29T05:16:03.408Z,4.57
2023-05-29T05:18:30.697Z,4.60
2023-05-29T05:20:58.893Z,3.97
2023-05-29T05:23:26.548Z,4.18
2023-05-29T05:25:53.681Z,3.72
2023-05-29T05:28:21.177Z,3.60
2023-05-29T05:30:48.568Z,4.05
2023-05-29T05:33:15.843Z,3.72
2023-05-29T05:35:43.582Z,3.80
2023-05-29T05:38:10.920Z,3.78
2023-05-29T05:40:38.196Z,3.12
2023-05-29T05:43:07.307Z,4.18
2023-05-29T05:45:43.121Z,3.55
2023-05-29T05:48:11.008Z,3.62
2023-05-29T05:50:38.437Z,3.65
2023-05-29T05:53:05.801Z,3.20
2023-05-29T05:55:33.736Z,3.12
2023-05-29T05:58:00.930Z,3.60
2023-05-29T06:00:29.321Z,3.78
2023-05-29T06:02:57.837Z,4.07
2023-05-29T06:05:28.234Z,4.47
2023-05-29T06:07:55.657Z,3.55
2023-05-29T06:10:23.448Z,3.90
2023-05-29T06:12:50.866Z,3.58
2023-05-29T06:15:18.865Z,3.60
2023-05-29T06:17:46.709Z,3.58
2023-05-29T06:20:15.936Z,3.42
2023-05-29T06:22:43.450Z,3.85
2023-05-29T06:25:10.957Z,3.80
2023-05-29T06:27:38.628Z,3.40
2023-05-29T06:30:07.946Z,4.00
2023-05-29T06:32:35.437Z,3.85
2023-05-29T06:35:02.865Z,3.85
2023-05-29T06:37:30.298Z,4.00
2023-05-29T06:39:57.719Z,3.90
2023-05-29T06:42:28.182Z,3.55
2023-05-29T06:44:56.939Z,4.07
2023-05-29T06:47:24.627Z,3.70
2023-05-29T06:49:51.843Z,3.70
2023-05-29T06:52:19.971Z,4.07
2023-05-29T06:54:51.145Z,4.18
2023-05-29T06:57:18.279Z,3.50
2023-05-29T06:59:48.361Z,3.83
2023-05-29T07:02:15.995Z,3.72
2023-05-29T07:04:47.076Z,4.22
2023-05-29T07:07:15.171Z,3.78
2023-05-29T07:09:42.689Z,4.30
2023-05-29T07:12:09.939Z,3.75
2023-05-29T07:14:37.752Z,5.30
2023-05-29T07:17:05.571Z,4.28
2023-05-29T07:19:36.773Z,3.92
2023-05-29T07:22:07.546Z,4.65
2023-05-29T07:24:34.846Z,3.78
2023-05-29T07:27:02.575Z,3.62
2023-05-29T07:29:31.098Z,4.12
2023-05-29T07:31:58.326Z,4.20
2023-05-29T07:34:25.816Z,3.87
2023-05-29T07:37:02.393Z,4.87
2023-05-29T07:39:29.990Z,3.53
2023-05-29T07:42:02.359Z,3.87
2023-05-29T07:44:30.211Z,4.07
2023-05-29T07:46:57.859Z,4.20
2023-05-29T07:49:25.981Z,4.03
2023-05-29T07:51:53.623Z,4.10
2023-05-29T07:54:22.559Z,4.45
2023-05-29T07:56:49.905Z,4.37
2023-05-29T07:59:18.428Z,4.15
2023-05-29T08:01:46.302Z,4.28
2023-05-29T08:04:16.869Z,4.40
2023-05-29T08:06:44.602Z,4.55
2023-05-29T08:09:11.963Z,4.68
2023-05-29T08:11:39.733Z,3.85
2023-05-29T08:14:07.200Z,4.00
2023-05-29T08:16:35.088Z,3.95
2023-05-29T08:19:02.810Z,4.90
2023-05-29T08:21:29.982Z,4.30
2023-05-29T08:23:57.362Z,4.75
2023-05-29T08:26:25.087Z,3.85
2023-05-29T08:28:52.393Z,4.53
2023-05-29T08:31:20.085Z,4.57
2023-05-29T08:33:47.651Z,4.35
2023-05-29T08:36:15.876Z,3.70
2023-05-29T08:38:43.330Z,4.80
2023-05-29T08:41:16.557Z,4.20
2023-05-29T08:43:44.409Z,3.62
2023-05-29T08:46:15.154Z,4.00
2023-05-29T08:48:44.694Z,4.30
2023-05-29T08:51:12.321Z,3.92
2023-05-29T08:53:39.953Z,3.35
2023-05-29T08:56:07.171Z,3.97
2023-05-29T08:58:35.620Z,4.47
2023-05-29T09:01:03.099Z,5.05
2023-05-29T09:03:31.932Z,4.07
2023-05-29T09:06:04.584Z,5.10
2023-05-29T09:08:32.840Z,3.58
2023-05-29T09:11:03.075Z,3.97
2023-05-29T09:13:30.940Z,4.25
2023-05-29T09:16:00.032Z,4.03
2023-05-29T09:18:33.492Z,4.03
2023-05-29T09:21:03.121Z,4.32
2023-05-29T09:23:31.165Z,3.35
2023-05-29T09:25:58.863Z,3.90
2023-05-29T09:28:28.068Z,3.92
2023-05-29T09:30:55.801Z,4.28
2023-05-29T09:33:23.286Z,3.50
2023-05-29T09:35:51.328Z,3.70
2023-05-29T09:38:37.856Z,3.40
2023-05-29T09:41:07.966Z,4.07
2023-05-29T09:43:35.864Z,3.92
2023-05-29T09:46:03.779Z,4.22
2023-05-29T09:48:32.026Z,4.45
2023-05-29T09:50:59.853Z,4.22
2023-05-29T09:53:30.038Z,4.25
2023-05-29T09:56:00.844Z,4.25
2023-05-29T09:58:29.864Z,4.53
2023-05-29T10:00:59.352Z,4.53
2023-05-29T10:03:36.098Z,4.40
2023-05-29T10:06:06.923Z,4.72
2023-05-29T10:08:37.546Z,4.10
2023-05-29T10:11:10.695Z,3.72
2023-05-29T10:13:40.047Z,3.83
2023-05-29T10:16:14.377Z,3.92
2023-05-29T10:18:46.750Z,3.67
2023-05-29T10:21:15.391Z,4.05
2023-05-29T10:23:46.071Z,4.00
2023-05-29T10:26:26.556Z,3.60
2023-05-29T10:29:03.171Z,3.67
2023-05-29T10:31:35.205Z,3.97
2023-05-29T10:34:24.729Z,4.40
2023-05-29T10:37:27.142Z,4.05
2023-05-29T10:39:54.829Z,3.55
2023-05-29T10:42:50.513Z,4.30
2023-05-29T10:45:33.852Z,3.97
2023-05-29T10:48:13.562Z,4.05
2023-05-29T10:53:17.617Z,4.65
2023-05-29T10:55:46.505Z,4.10
2023-05-29T10:58:16.394Z,4.00
2023-05-29T11:03:11.992Z,4.72
2023-05-29T11:06:07.699Z,4.12
2023-05-29T11:08:49.376Z,3.83
2023-05-29T11:11:18.223Z,3.75
2023-05-29T11:13:56.391Z,3.85
2023-05-29T11:16:27.109Z,3.83
2023-05-29T11:18:56.804Z,4.07
2023-05-29T11:21:28.540Z,3.90
2023-05-29T11:23:56.232Z,4.30
2023-05-29T11:26:25.161Z,4.70
2023-05-29T11:28:52.382Z,4.13
2023-05-29T11:31:22.038Z,4.25
2023-05-29T11:33:51.827Z,4.70
2023-05-29T11:36:20.954Z,4.35
2023-05-29T11:38:48.194Z,4.18
2023-05-29T11:41:18.399Z,4.40
2023-05-29T11:43:57.515Z,4.05
2023-05-29T11:46:24.794Z,4.20
2023-05-29T11:48:52.331Z,3.87
2023-05-29T11:51:19.660Z,4.45
2023-05-29T11:53:48.298Z,3.80
2023-05-29T11:56:16.090Z,3.77
2023-05-29T11:58:43.929Z,4.25
2023-05-29T12:01:11.375Z,3.80
2023-05-29T12:03:40.868Z,4.30
2023-05-29T12:06:10.065Z,4.25
2023-05-29T12:08:38.441Z,3.60
2023-05-29T12:11:06.488Z,3.72
2023-05-29T12:13:34.285Z,3.15
2023-05-29T12:16:03.868Z,3.65
2023-05-29T12:18:31.420Z,3.30
2023-05-29T12:21:02.699Z,3.45
2023-05-29T12:23:30.970Z,3.20
2023-05-29T12:26:00.095Z,3.70
2023-05-29T12:28:27.479Z,3.07
2023-05-29T12:30:59.992Z,3.22
2023-05-29T12:33:29.874Z,5.15
2023-05-29T12:36:08.203Z,3.42
2023-05-29T12:38:52.413Z,4.00
2023-05-29T12:41:30.887Z,4.15
2023-05-29T12:43:58.858Z,3.70
2023-05-29T12:46:27.115Z,4.15
2023-05-29T12:48:57.683Z,3.78
2023-05-29T12:51:28.700Z,3.25
2023-05-29T12:53:56.357Z,3.70
2023-05-29T12:56:24.980Z,3.80
2023-05-29T12:58:53.145Z,3.50
2023-05-29T13:01:23.044Z,4.40
2023-05-29T13:03:50.980Z,3.62
2023-05-29T13:06:19.001Z,3.60
2023-05-29T13:08:46.268Z,3.42
2023-05-29T13:11:13.471Z,4.28
2023-05-29T13:13:40.996Z,4.68
2023-05-29T13:16:08.400Z,3.90
2023-05-29T13:18:37.647Z,4.22
2023-05-29T13:21:06.915Z,4.05
2023-05-29T13:23:38.245Z,3.53
2023-05-29T13:26:06.478Z,3.87
2023-05-29T13:28:34.601Z,3.60
2023-05-29T13:31:04.017Z,3.33
2023-05-29T13:33:31.711Z,3.80
2023-05-29T13:36:02.062Z,3.30
2023-05-29T13:38:32.316Z,3.40
2023-05-29T13:41:02.917Z,3.67
2023-05-29T13:43:42.305Z,3.78
2023-05-29T13:46:16.847Z,3.75
2023-05-29T13:48:44.161Z,3.60
2023-05-29T13:51:11.752Z,3.50
2023-05-29T13:53:40.662Z,3.30
2023-05-29T13:56:07.894Z,3.22
2023-05-29T13:58:35.428Z,3.53
2023-05-29T14:01:04.400Z,3.62
2023-05-29T14:03:32.939Z,3.85
2023-05-29T14:06:00.558Z,3.53
2023-05-29T14:08:27.823Z,3.25
2023-05-29T14:10:55.336Z,3.80
2023-05-29T14:13:22.494Z,3.78
2023-05-29T14:15:52.293Z,3.90
2023-05-29T14:18:19.802Z,3.25
2023-05-29T14:20:49.550Z,3.15
2023-05-29T14:23:20.221Z,3.50
2023-05-29T14:25:47.769Z,3.30
2023-05-29T14:28:15.167Z,3.42
2023-05-29T14:30:42.364Z,3.62
2023-05-29T14:33:10.074Z,3.22
2023-05-29T14:35:37.312Z,3.75
2023-05-29T14:38:04.510Z,3.30
2023-05-29T14:40:32.401Z,3.50
2023-05-29T14:42:59.792Z,3.33
2023-05-29T14:45:27.132Z,3.58
2023-05-29T14:47:54.601Z,3.45
2023-05-29T14:50:21.918Z,3.30
2023-05-29T14:52:49.368Z,3.35
2023-05-29T14:55:16.897Z,3.03
2023-05-29T14:57:44.042Z,3.22
2023-05-29T15:00:11.582Z,3.40
2023-05-29T15:02:40.878Z,3.83
2023-05-29T15:05:08.569Z,6.32
2023-05-29T15:07:35.868Z,3.60
2023-05-29T15:10:04.442Z,3.75
2023-05-29T15:12:32.419Z,3.58
2023-05-29T15:14:59.667Z,3.70
2023-05-29T15:17:27.297Z,3.58
2023-05-29T15:19:54.600Z,3.67
2023-05-29T15:22:21.836Z,3.50
2023-05-29T15:24:49.368Z,3.75
2023-05-29T15:27:16.565Z,3.67
2023-05-29T15:29:43.870Z,3.90
2023-05-29T15:32:11.333Z,3.70
2023-05-29T15:34:41.521Z,3.95
2023-05-29T15:37:08.853Z,4.22
2023-05-29T15:39:38.865Z,3.83
2023-05-29T15:42:11.408Z,4.30
2023-05-29T15:44:38.925Z,4.03
2023-05-29T15:47:06.425Z,3.83
2023-05-29T15:49:34.453Z,4.85
2023-05-29T15:52:01.982Z,3.97
2023-05-29T15:54:29.159Z,4.25
2023-05-29T15:56:56.767Z,4.10
2023-05-29T15:59:24.248Z,4.45
2023-05-29T16:01:51.465Z,3.95
2023-05-29T16:04:18.983Z,3.90
2023-05-29T16:06:46.264Z,3.90
2023-05-29T16:09:14.351Z,4.07
2023-05-29T16:11:41.897Z,4.22
2023-05-29T16:14:09.620Z,4.03
2023-05-29T16:16:38.024Z,4.10
2023-05-29T16:19:07.140Z,3.97
2023-05-29T16:21:34.379Z,4.15
2023-05-29T16:24:01.555Z,4.28
2023-05-29T16:26:29.222Z,4.25
2023-05-29T16:28:56.748Z,4.40
2023-05-29T16:31:24.137Z,4.20
2023-05-29T16:33:51.779Z,3.70
2023-05-29T16:36:19.828Z,4.12
2023-05-29T16:38:47.006Z,4.25
2023-05-29T16:41:14.453Z,3.80
2023-05-29T16:43:41.961Z,4.05
2023-05-29T16:46:09.263Z,4.20
2023-05-29T16:48:40.422Z,3.65
2023-05-29T16:51:08.507Z,4.03
2023-05-29T16:53:36.821Z,4.15
2023-05-29T16:56:08.093Z,3.75
2023-05-29T16:58:36.072Z,4.25
2023-05-29T17:01:03.567Z,4.25
2023-05-29T17:03:30.927Z,4.20
2023-05-29T17:05:58.117Z,4.18
2023-05-29T17:08:25.589Z,3.62
2023-05-29T17:10:52.899Z,4.25
2023-05-29T17:13:20.114Z,4.07
2023-05-29T17:15:48.100Z,5.05
2023-05-29T17:18:15.239Z,3.92
2023-05-29T17:20:42.503Z,4.45
2023-05-29T17:23:10.622Z,3.87
2023-05-29T17:25:38.584Z,4.10
2023-05-29T17:28:07.761Z,3.75
2023-05-29T17:30:38.018Z,3.53
2023-05-29T17:35:33.698Z,4.03
2023-05-29T17:38:01.999Z,4.60
2023-05-29T17:40:34.638Z,4.05
2023-05-29T17:43:02.201Z,4.47
2023-05-29T17:45:29.356Z,4.72
2023-05-29T17:47:59.614Z,4.30
2023-05-29T17:50:27.321Z,5.03
2023-05-29T17:52:54.455Z,4.45
2023-05-29T17:55:21.556Z,4.82
2023-05-29T17:57:51.266Z,5.00
2023-05-29T18:00:24.054Z,4.53
2023-05-29T18:02:51.800Z,3.80
2023-05-29T18:05:19.291Z,4.40
2023-05-29T18:07:52.214Z,4.65
2023-05-29T18:10:22.070Z,4.28
2023-05-29T18:12:49.212Z,4.60
2023-05-29T18:15:17.215Z,5.87
2023-05-29T18:17:45.427Z,4.43
2023-05-29T18:20:14.315Z,4.97
2023-05-29T18:22:41.508Z,5.18
2023-05-29T18:25:09.622Z,5.50
2023-05-29T18:27:36.825Z,5.43
2023-05-29T18:30:04.804Z,5.12
2023-05-29T18:32:36.478Z,6.07
2023-05-29T18:35:04.409Z,5.80
2023-05-29T18:37:32.116Z,6.85
2023-05-29T18:40:02.463Z,6.62
2023-05-29T18:42:29.657Z,9.07
2023-05-29T18:45:01.801Z,8.10
2023-05-29T18:47:28.963Z,7.43
2023-05-29T18:49:56.531Z,6.37
2023-05-29T18:52:23.874Z,7.35
2023-05-29T18:54:51.324Z,7.43
2023-05-29T18:57:18.856Z,8.55
2023-05-29T18:59:46.889Z,10.13
2023-05-29T19:02:14.444Z,8.63
2023-05-29T19:04:42.081Z,7.22
2023-05-29T19:07:09.379Z,7.72
2023-05-29T19:09:36.786Z,7.10
2023-05-29T19:12:05.019Z,7.78
2023-05-29T19:14:32.422Z,7.00
2023-05-29T19:16:59.708Z,6.05
2023-05-29T19:19:27.469Z,5.47
2023-05-29T19:21:54.700Z,6.57
2023-05-29T19:24:22.055Z,6.30
2023-05-29T19:26:49.552Z,6.55
2023-05-29T19:29:18.723Z,6.65
2023-05-29T19:31:48.264Z,7.47
2023-05-29T19:34:16.733Z,6.75
2023-05-29T19:36:44.204Z,5.82
2023-05-29T19:39:12.776Z,5.90
2023-05-29T19:41:41.892Z,6.03
2023-05-29T19:44:09.512Z,5.90
2023-05-29T19:46:37.568Z,5.53
2023-05-29T19:49:05.889Z,5.70
2023-05-29T19:51:34.424Z,5.07
2023-05-29T19:54:01.757Z,5.87
2023-05-29T19:56:29.914Z,5.43
2023-05-29T19:58:57.292Z,6.68
2023-05-29T20:01:24.939Z,7.45
2023-05-29T20:03:52.971Z,7.65
2023-05-29T20:06:20.959Z,8.60
2023-05-29T20:08:48.279Z,7.90
2023-05-29T20:11:16.088Z,7.60
2023-05-29T20:13:43.368Z,7.15
2023-05-29T20:16:10.809Z,6.18
2023-05-29T20:18:38.553Z,5.72
2023-05-29T20:21:05.765Z,6.57
2023-05-29T20:23:33.057Z,7.65
2023-05-29T20:26:00.652Z,6.60
2023-05-29T20:28:29.380Z,6.45
2023-05-29T20:30:56.920Z,6.70
2023-05-29T20:33:24.704Z,6.32
2023-05-29T20:35:51.963Z,5.60
2023-05-29T20:38:19.131Z,5.65
2023-05-29T20:40:52.717Z,5.53
2023-05-29T20:43:23.293Z,5.87
2023-05-29T20:45:52.933Z,5.22
2023-05-29T20:48:20.733Z,6.22
2023-05-29T20:50:48.871Z,6.20
2023-05-29T20:53:16.450Z,6.07
2023-05-29T20:55:43.739Z,6.82
2023-05-29T20:58:11.242Z,6.20
2023-05-29T21:00:39.145Z,5.95
2023-05-29T21:03:07.116Z,5.87
2023-05-29T21:05:36.374Z,6.25
2023-05-29T21:08:04.228Z,6.60
2023-05-29T21:10:31.468Z,7.20
2023-05-29T21:13:02.296Z,6.78
2023-05-29T21:15:32.236Z,7.32
2023-05-29T21:17:59.397Z,6.45
2023-05-29T21:20:26.594Z,7.03
2023-05-29T21:22:54.872Z,7.12
2023-05-29T21:25:22.351Z,6.32
2023-05-29T21:27:49.507Z,7.15
2023-05-29T21:30:17.617Z,7.18
2023-05-29T21:32:44.966Z,6.37
2023-05-29T21:35:13.540Z,6.45
2023-05-29T21:37:41.044Z,7.53
2023-05-29T21:40:11.219Z,6.07
2023-05-29T21:42:38.550Z,6.65
2023-05-29T21:45:06.709Z,6.60
2023-05-29T21:47:33.904Z,6.18
2023-05-29T21:50:01.134Z,6.60
2023-05-29T21:52:28.582Z,6.97
2023-05-29T21:54:55.700Z,7.12
2023-05-29T21:57:23.003Z,8.10
2023-05-29T21:59:50.761Z,6.97
2023-05-29T22:05:48.108Z,6.70
2023-05-29T22:11:49.539Z,13.23
2023-05-29T22:14:17.564Z,8.98
2023-05-29T22:16:48.867Z,8.23
2023-05-29T22:19:16.665Z,8.00
2023-05-29T22:21:44.264Z,7.32
2023-05-29T22:24:12.469Z,7.40
2023-05-29T22:26:40.161Z,7.60
2023-05-29T22:29:07.910Z,7.68
2023-05-29T22:31:35.324Z,8.38
2023-05-29T22:34:02.886Z,8.35
2023-05-29T22:36:30.052Z,7.90
2023-05-29T22:38:57.242Z,7.70
2023-05-29T22:41:24.754Z,8.10
2023-05-29T22:43:54.557Z,6.80
2023-05-29T22:46:23.222Z,7.60
2023-05-29T22:48:50.789Z,6.72
2023-05-29T22:51:17.925Z,7.53
2023-05-29T22:53:48.087Z,6.85
2023-05-29T22:56:17.242Z,6.97
2023-05-29T22:58:44.452Z,7.62
2023-05-29T23:01:11.876Z,7.37
2023-05-29T23:03:39.445Z,8.15
2023-05-29T23:06:07.998Z,7.12
2023-05-29T23:08:35.343Z,7.75
2023-05-29T23:11:02.797Z,7.82
2023-05-29T23:13:29.938Z,7.43
2023-05-29T23:15:57.226Z,7.07
2023-05-29T23:18:25.335Z,7.03
2023-05-29T23:20:52.877Z,7.37
2023-05-29T23:23:20.228Z,7.60
2023-05-29T23:25:48.100Z,7.53
2023-05-29T23:28:15.355Z,7.03
2023-05-29T23:30:42.478Z,7.25
2023-05-29T23:33:10.088Z,7.50
2023-05-29T23:35:37.318Z,8.55
2023-05-29T23:38:05.527Z,8.50
2023-05-29T23:40:33.218Z,8.05
2023-05-29T23:43:01.043Z,8.50
2023-05-29T23:45:28.233Z,7.30
2023-05-29T23:47:56.219Z,7.45
2023-05-29T23:50:23.672Z,8.00
2023-05-29T23:52:52.010Z,7.65
2023-05-29T23:55:19.438Z,7.87
2023-05-29T23:57:46.585Z,7.60
